Time;durP1;ratioP1;P1;durP2;ratioP2;P2;SDS_P1;SDS_P2;PMS_P1;PMS_P2;Temp;Humidity;BMP_temperature;BMP_pressure;BME280_temperature;BME280_humidity;BME280_pressure;Samples;Min_cycle;Max_cycle;Signal;HPM_P1;HPM_P2
2022/09/22 00:01:08;;;;;;;;;;;;;;;11.00;80.67;101224.38;1726791;83;25792;-59
2022/09/22 00:03:39;;;;;;;;;;;;;;;11.05;80.83;101231.09;1726399;83;26238;-60
2022/09/22 00:06:13;;;;;;;;;;;;;;;11.08;80.72;101224.59;1725976;83;25671;-59
2022/09/22 00:08:42;;;;;;;;;;;;;;;11.11;80.65;101228.39;1725430;82;27542;-59
2022/09/22 00:11:19;;;;;;;;;;;;;;;11.15;80.85;101221.78;1700172;83;25836;-59
2022/09/22 00:13:46;;;;;;;;;;;;;;;11.16;80.71;101222.11;1697077;84;25703;-60
2022/09/22 00:16:14;;;;;;;;;;;;;;;11.18;80.56;101222.84;1697187;84;25949;-60
2022/09/22 00:18:41;;;;;;;;;;;;;;;11.18;80.17;101224.19;1697524;84;25494;-60
2022/09/22 00:21:12;;;;;;;;;;;;;;;11.20;80.33;101224.08;1696854;83;28166;-59
2022/09/22 00:23:40;;;;;;;;;;;;;;;11.19;80.48;101220.52;1664195;85;25782;-59
2022/09/22 00:26:09;;;;;;;;;;;;;;;11.21;80.74;101223.07;1709876;83;25697;-59
2022/09/22 00:28:37;;;;;;;;;;;;;;;11.22;80.91;101214.88;1756020;81;25784;-60
2022/09/22 00:31:07;;;;;;;;;;;;;;;11.26;80.85;101221.70;1743114;81;25450;-60
2022/09/22 00:33:34;;;;;;;;;;;;;;;11.27;80.73;101212.64;1719839;81;27521;-60
2022/09/22 00:36:02;;;;;;;;;;;;;;;11.31;80.74;101217.78;1726949;81;25998;-59
2022/09/22 00:38:30;;;;;;;;;;;;;;;11.33;80.82;101217.16;1756259;81;25733;-59
2022/09/22 00:40:57;;;;;;;;;;;;;;;11.33;81.00;101211.78;1747950;81;26607;-60
2022/09/22 00:43:25;;;;;;;;;;;;;;;11.33;80.91;101208.58;1721404;81;25446;-59
2022/09/22 00:45:55;;;;;;;;;;;;;;;11.28;80.54;101209.47;1757435;81;27537;-59
2022/09/22 00:48:24;;;;;;;;;;;;;;;11.24;80.60;101212.05;1754619;81;26136;-59
2022/09/22 00:50:53;;;;;;;;;;;;;;;11.22;80.94;101207.28;1757527;81;25604;-59
2022/09/22 00:53:20;;;;;;;;;;;;;;;11.16;80.84;101207.80;1721137;81;27062;-60
2022/09/22 00:55:59;;;;;;;;;;;;;;;11.05;80.74;101201.48;1713042;81;25730;-60
2022/09/22 00:58:29;;;;;;;;;;;;;;;11.00;81.25;101202.38;1731043;81;27522;-60
2022/09/22 01:00:56;;;;;;;;;;;;;;;10.92;81.78;101203.00;1747421;81;25659;-60
2022/09/22 01:03:25;;;;;;;;;;;;;;;10.80;83.08;101198.66;1734946;81;25821;-60
2022/09/22 01:05:53;;;;;;;;;;;;;;;10.71;83.37;101202.11;1756178;81;25856;-59
2022/09/22 01:08:21;;;;;;;;;;;;;;;10.67;83.42;101198.79;1744732;81;25728;-59
2022/09/22 01:10:48;;;;;;;;;;;;;;;10.61;83.38;101204.21;1723369;82;27446;-60
2022/09/22 01:13:19;;;;;;;;;;;;;;;10.65;83.34;101204.81;1690167;84;25763;-60
2022/09/22 01:15:52;;;;;;;;;;;;;;;10.70;83.48;101203.09;1718822;81;25816;-60
2022/09/22 01:18:39;;;;;;;;;;;;;;;10.78;83.65;101202.80;1694383;84;26441;-59
2022/09/22 01:21:09;;;;;;;;;;;;;;;10.87;83.79;101209.27;1701683;81;25749;-61
2022/09/22 01:23:57;;;;;;;;;;;;;;;10.93;83.64;101202.02;1727194;81;27514;-59
2022/09/22 01:26:53;;;;;;;;;;;;;;;10.98;83.48;101207.53;1716208;83;25821;-60
2022/09/22 01:29:23;;;;;;;;;;;;;;;11.03;83.41;101210.67;1734355;81;25725;-60
2022/09/22 01:32:00;;;;;;;;;;;;;;;11.08;83.08;101213.82;1719583;81;25970;-60
2022/09/22 01:34:37;;;;;;;;;;;;;;;11.12;83.19;101207.21;1761521;81;25695;-59
2022/09/22 01:37:15;;;;;;;;;;;;;;;11.18;83.31;101208.03;1739247;81;27715;-60
2022/09/22 01:39:51;;;;;;;;;;;;;;;11.22;82.98;101201.89;1728970;81;25916;-60
2022/09/22 01:42:33;;;;;;;;;;;;;;;11.26;82.97;101207.39;1750473;81;26493;-60
2022/09/22 01:45:06;;;;;;;;;;;;;;;11.30;82.64;101206.64;1684078;84;25925;-60
2022/09/22 01:47:46;;;;;;;;;;;;;;;11.32;82.80;101204.17;1745977;81;25750;-60
2022/09/22 01:50:17;;;;;;;;;;;;;;;11.35;82.67;101201.70;1756655;81;27646;-60
2022/09/22 01:52:44;;;;;;;;;;;;;;;11.39;82.62;101206.70;1708033;81;25495;-60
2022/09/22 01:55:19;;;;;;;;;;;;;;;11.41;82.41;101206.08;1762035;81;25863;-60
2022/09/22 01:57:54;;;;;;;;;;;;;;;11.45;82.43;101207.17;1727504;81;28012;-60
2022/09/22 02:00:22;;;;;;;;;;;;;;;11.47;82.49;101197.97;1759971;81;25745;-60
2022/09/22 02:03:10;;;;;;;;;;;;;;;11.51;82.08;101203.47;1744110;81;27463;-60
2022/09/22 02:05:46;;;;;;;;;;;;;;;11.52;82.05;101203.80;1727227;83;25899;-60
2022/09/22 02:08:16;;;;;;;;;;;;;;;11.53;81.70;101201.47;1732209;81;25511;-60
2022/09/22 02:10:45;;;;;;;;;;;;;;;11.52;81.55;101199.77;1726671;81;25865;-60
2022/09/22 02:13:11;;;;;;;;;;;;;;;11.52;81.48;101201.11;1724998;81;25746;-60
2022/09/22 02:18:26;;;;;;;;;;;;;;;11.54;81.33;101201.84;1702593;84;25679;-60
2022/09/22 02:20:53;;;;;;;;;;;;;;;11.53;81.21;101201.47;1671944;85;25747;-61
2022/09/22 02:23:19;;;;;;;;;;;;;;;11.54;81.04;101207.23;1687193;84;26037;-62
2022/09/22 02:25:47;;;;;;;;;;;;;;;11.54;80.79;101205.88;1705279;84;25735;-61
2022/09/22 02:28:17;;;;;;;;;;;;;;;11.54;80.76;101204.53;1704658;84;27498;-60
2022/09/22 02:30:45;;;;;;;;;;;;;;;11.52;80.82;101209.19;1708504;83;25810;-60
2022/09/22 02:33:13;;;;;;;;;;;;;;;11.49;80.67;101209.95;1703648;84;25778;-60
2022/09/22 02:35:42;;;;;;;;;;;;;;;11.49;80.80;101209.95;1705008;84;25831;-60
2022/09/22 02:38:14;;;;;;;;;;;;;;;11.48;80.79;101207.77;1707603;83;25716;-60
2022/09/22 02:40:47;;;;;;;;;;;;;;;11.43;80.45;101200.55;1705573;83;27517;-60
2022/09/22 02:43:26;;;;;;;;;;;;;;;11.40;81.04;101204.37;1683280;84;25819;-60
2022/09/22 02:46:14;;;;;;;;;;;;;;;11.34;80.61;101204.06;1703983;84;25788;-60
2022/09/22 02:48:46;;;;;;;;;;;;;;;11.30;80.75;101206.64;1704004;84;25892;-60
2022/09/22 02:51:14;;;;;;;;;;;;;;;11.24;80.72;101208.01;1703182;84;26775;-61
2022/09/22 02:53:40;;;;;;;;;;;;;;;11.20;80.94;101208.77;1694113;84;27496;-60
2022/09/22 02:56:06;;;;;;;;;;;;;;;11.19;81.00;101209.74;1692935;84;25856;-60
2022/09/22 02:58:33;;;;;;;;;;;;;;;11.20;81.06;101206.58;1704150;84;25756;-60
2022/09/22 03:00:59;;;;;;;;;;;;;;;11.26;81.08;101211.44;1704259;84;25808;-60
2022/09/22 03:03:27;;;;;;;;;;;;;;;11.29;80.91;101215.22;1706668;84;25715;-60
2022/09/22 03:05:53;;;;;;;;;;;;;;;11.32;81.19;101215.45;1704485;84;27453;-60
2022/09/22 03:08:20;;;;;;;;;;;;;;;11.37;81.14;101220.81;1692835;84;26652;-61
2022/09/22 03:10:46;;;;;;;;;;;;;;;11.40;81.23;101216.48;1703961;84;25835;-61
2022/09/22 03:13:13;;;;;;;;;;;;;;;11.45;81.39;101221.48;1704648;84;25895;-61
2022/09/22 03:15:39;;;;;;;;;;;;;;;11.48;80.88;101219.89;1704908;84;25933;-61
2022/09/22 03:18:06;;;;;;;;;;;;;;;11.50;80.99;101229.17;1704434;84;27544;-61
2022/09/22 03:20:32;;;;;;;;;;;;;;;11.53;80.72;101226.23;1704832;84;25818;-61
2022/09/22 03:22:59;;;;;;;;;;;;;;;11.53;80.48;101228.92;1705142;83;25865;-61
2022/09/22 03:25:26;;;;;;;;;;;;;;;11.54;80.66;101228.78;1707991;84;25714;-61
2022/09/22 03:27:53;;;;;;;;;;;;;;;11.57;80.82;101234.39;1707398;84;26027;-61
2022/09/22 03:30:19;;;;;;;;;;;;;;;11.61;80.86;101240.41;1716666;83;27473;-59
2022/09/22 03:32:45;;;;;;;;;;;;;;;11.65;80.98;101237.80;1738193;82;25910;-62
2022/09/22 03:35:12;;;;;;;;;;;;;;;11.67;80.88;101238.52;1727120;83;25696;-62
2022/09/22 03:37:41;;;;;;;;;;;;;;;11.71;80.83;101237.25;1727455;83;25812;-61
2022/09/22 03:40:09;;;;;;;;;;;;;;;11.73;81.15;101239.33;1716252;82;26288;-60
2022/09/22 03:42:35;;;;;;;;;;;;;;;11.73;80.79;101233.47;1728075;81;28184;-60
2022/09/22 03:45:04;;;;;;;;;;;;;;;11.75;80.83;101236.02;1727121;81;25762;-60
2022/09/22 03:47:31;;;;;;;;;;;;;;;11.78;80.69;101236.23;1727203;83;25666;-60
2022/09/22 03:49:58;;;;;;;;;;;;;;;11.79;80.40;101234.75;1737746;81;26475;-61
2022/09/22 03:52:24;;;;;;;;;;;;;;;11.80;80.57;101232.41;1687080;84;25664;-60
2022/09/22 03:54:51;;;;;;;;;;;;;;;11.83;80.35;101240.25;1718304;81;27490;-60
2022/09/22 03:57:18;;;;;;;;;;;;;;;11.84;80.21;101232.53;1715045;83;25821;-60
2022/09/22 03:59:45;;;;;;;;;;;;;;;11.84;80.30;101233.87;1706538;84;25744;-60
2022/09/22 04:02:12;;;;;;;;;;;;;;;11.86;80.40;101238.65;1716733;83;25850;-60
2022/09/22 04:04:39;;;;;;;;;;;;;;;11.85;80.14;101234.23;1756632;81;25784;-60
2022/09/22 04:07:06;;;;;;;;;;;;;;;11.86;80.15;101237.30;1756994;81;27525;-61
2022/09/22 04:09:32;;;;;;;;;;;;;;;11.85;80.01;101237.41;1715330;83;25808;-60
2022/09/22 04:11:59;;;;;;;;;;;;;;;11.80;79.85;101247.24;1688990;83;25614;-60
2022/09/22 04:14:26;;;;;;;;;;;;;;;11.79;80.00;101240.65;1715283;83;25787;-60
2022/09/22 04:16:53;;;;;;;;;;;;;;;11.78;79.90;101235.77;1757792;81;25669;-60
2022/09/22 04:19:21;;;;;;;;;;;;;;;11.79;80.18;101245.53;1758980;81;27462;-61
2022/09/22 04:21:48;;;;;;;;;;;;;;;11.79;79.89;101246.87;1758700;81;25852;-60
2022/09/22 04:24:16;;;;;;;;;;;;;;;11.82;79.99;101246.63;1753191;81;25682;-60
2022/09/22 04:26:42;;;;;;;;;;;;;;;11.81;79.74;101246.77;1729375;83;25811;-61
2022/09/22 04:29:10;;;;;;;;;;;;;;;11.83;80.08;101239.41;1716203;82;25835;-60
2022/09/22 04:31:36;;;;;;;;;;;;;;;11.86;80.13;101237.30;1740877;82;27504;-60
2022/09/22 04:34:03;;;;;;;;;;;;;;;11.88;80.07;101235.30;1712353;82;25858;-60
2022/09/22 04:36:29;;;;;;;;;;;;;;;11.91;80.01;101238.25;1704760;84;25818;-60
2022/09/22 04:38:56;;;;;;;;;;;;;;;11.94;79.84;101237.95;1703296;82;25826;-61
2022/09/22 04:41:22;;;;;;;;;;;;;;;11.94;79.50;101235.77;1706498;84;26792;-61
2022/09/22 04:43:48;;;;;;;;;;;;;;;11.90;79.83;101237.37;1706714;84;27479;-61
2022/09/22 04:46:15;;;;;;;;;;;;;;;11.89;79.66;101241.05;1706602;84;25522;-62
2022/09/22 04:48:42;;;;;;;;;;;;;;;11.79;79.54;101242.83;1706667;84;25681;-61
2022/09/22 04:51:08;;;;;;;;;;;;;;;11.71;80.38;101247.56;1707258;84;25840;-61
2022/09/22 04:53:34;;;;;;;;;;;;;;;11.64;80.03;101240.13;1706551;84;25704;-60
2022/09/22 04:56:01;;;;;;;;;;;;;;;11.63;80.20;101243.80;1700526;84;27576;-60
2022/09/22 04:58:28;;;;;;;;;;;;;;;11.61;80.71;101247.98;1706052;82;25714;-62
2022/09/22 05:00:54;;;;;;;;;;;;;;;11.56;80.71;101244.33;1703342;84;25727;-60
2022/09/22 05:03:21;;;;;;;;;;;;;;;11.54;80.95;101241.42;1706213;84;25837;-61
2022/09/22 05:05:47;;;;;;;;;;;;;;;11.55;81.52;101249.86;1707382;84;25874;-61
2022/09/22 05:08:13;;;;;;;;;;;;;;;11.59;81.10;101246.78;1687611;84;28206;-61
2022/09/22 05:10:41;;;;;;;;;;;;;;;11.70;81.36;101244.97;1706686;84;25791;-61
2022/09/22 05:13:08;;;;;;;;;;;;;;;11.79;81.07;101244.19;1706915;84;25780;-61
2022/09/22 05:15:34;;;;;;;;;;;;;;;11.87;81.45;101243.53;1706509;84;26387;-60
2022/09/22 05:18:01;;;;;;;;;;;;;;;11.85;80.78;101246.37;1706746;84;25527;-61
2022/09/22 05:20:27;;;;;;;;;;;;;;;11.86;80.92;101245.38;1699072;84;27542;-60
2022/09/22 05:22:54;;;;;;;;;;;;;;;11.92;80.78;101245.83;1705137;84;26196;-59
2022/09/22 05:25:21;;;;;;;;;;;;;;;11.99;80.87;101242.50;1702704;84;25738;-60
2022/09/22 05:27:50;;;;;;;;;;;;;;;12.06;80.46;101246.84;1702149;84;26049;-60
2022/09/22 05:30:21;;;;;;;;;;;;;;;12.06;80.42;101244.14;1718948;82;25769;-60
2022/09/22 05:32:48;;;;;;;;;;;;;;;12.11;79.99;101249.14;1703195;83;27463;-60
2022/09/22 05:35:20;;;;;;;;;;;;;;;12.13;80.21;101248.52;1702067;84;25791;-61
2022/09/22 05:37:49;;;;;;;;;;;;;;;12.19;80.46;101248.84;1702218;83;25810;-60
2022/09/22 05:40:16;;;;;;;;;;;;;;;12.27;80.30;101244.61;1699716;84;26491;-60
2022/09/22 05:42:44;;;;;;;;;;;;;;;12.31;79.79;101246.06;1702317;84;26101;-60
2022/09/22 05:45:11;;;;;;;;;;;;;;;12.27;79.58;101243.25;1702363;84;27542;-61
2022/09/22 05:47:39;;;;;;;;;;;;;;;12.27;79.45;101241.91;1702168;84;25807;-61
2022/09/22 05:50:07;;;;;;;;;;;;;;;12.29;79.48;101242.12;1701767;84;25765;-61
2022/09/22 05:52:34;;;;;;;;;;;;;;;12.32;79.18;101243.72;1702448;84;26422;-61
2022/09/22 05:55:01;;;;;;;;;;;;;;;12.36;79.33;101238.39;1698874;84;25871;-60
2022/09/22 05:57:27;;;;;;;;;;;;;;;12.33;78.60;101244.05;1702277;84;27520;-60
2022/09/22 05:59:54;;;;;;;;;;;;;;;12.37;78.93;101249.55;1701469;83;25727;-60
2022/09/22 06:02:22;;;;;;;;;;;;;;;12.43;79.01;101240.06;1702055;84;26647;-61
2022/09/22 06:04:50;;;;;;;;;;;;;;;12.48;78.79;101241.36;1702180;84;25898;-60
2022/09/22 06:07:21;;;;;;;;;;;;;;;12.54;78.70;101248.06;1702423;84;25753;-61
2022/09/22 06:09:49;;;;;;;;;;;;;;;12.62;78.63;101243.30;1701509;84;27406;-61
2022/09/22 06:12:16;;;;;;;;;;;;;;;12.69;78.18;101241.75;1701400;83;25746;-62
2022/09/22 06:14:42;;;;;;;;;;;;;;;12.77;78.30;101243.29;1702268;84;25695;-61
2022/09/22 06:17:09;;;;;;;;;;;;;;;12.90;78.26;101241.67;1702460;84;25792;-61
2022/09/22 06:19:35;;;;;;;;;;;;;;;13.02;78.22;101242.87;1702385;84;26649;-62
2022/09/22 06:22:02;;;;;;;;;;;;;;;13.12;77.95;101245.95;1700640;84;27550;-61
2022/09/22 06:24:29;;;;;;;;;;;;;;;13.26;77.85;101248.73;1701945;82;25898;-60
2022/09/22 06:26:56;;;;;;;;;;;;;;;13.38;77.32;101244.03;1703095;84;25471;-60
2022/09/22 06:29:22;;;;;;;;;;;;;;;13.46;76.83;101248.73;1703142;82;26436;-61
2022/09/22 06:31:49;;;;;;;;;;;;;;;13.57;75.37;101243.70;1707273;84;26509;-61
2022/09/22 06:34:17;;;;;;;;;;;;;;;13.58;75.37;101241.35;1705437;83;28131;-61
2022/09/22 06:36:44;;;;;;;;;;;;;;;13.63;75.30;101250.37;1701823;83;25815;-61
2022/09/22 06:39:11;;;;;;;;;;;;;;;13.73;74.95;101247.13;1704454;83;25754;-61
2022/09/22 06:41:38;;;;;;;;;;;;;;;13.72;74.40;101249.00;1707985;84;25789;-60
2022/09/22 06:44:07;;;;;;;;;;;;;;;13.80;74.45;101247.41;1705965;82;25518;-61
2022/09/22 06:46:34;;;;;;;;;;;;;;;13.83;72.66;101244.43;1705746;84;27507;-61
2022/09/22 06:49:01;;;;;;;;;;;;;;;13.87;73.63;101248.05;1706726;82;25819;-61
2022/09/22 06:51:31;;;;;;;;;;;;;;;13.98;74.09;101248.88;1705656;84;25842;-61
2022/09/22 06:53:59;;;;;;;;;;;;;;;14.13;73.69;101246.05;1706575;84;25843;-60
2022/09/22 06:56:26;;;;;;;;;;;;;;;14.14;73.04;101249.59;1707002;84;25925;-60
2022/09/22 06:58:57;;;;;;;;;;;;;;;14.10;69.87;101250.38;1707801;83;28279;-60
2022/09/22 07:01:24;;;;;;;;;;;;;;;13.97;71.45;101252.06;1710170;83;25851;-61
2022/09/22 07:03:51;;;;;;;;;;;;;;;13.99;71.27;101254.61;1707068;84;25723;-61
2022/09/22 07:06:18;;;;;;;;;;;;;;;14.00;70.40;101254.97;1707137;84;25825;-61
2022/09/22 07:08:47;;;;;;;;;;;;;;;14.07;71.12;101252.05;1706245;84;25874;-61
2022/09/22 07:11:22;;;;;;;;;;;;;;;14.25;71.35;101252.12;1705285;84;27562;-60
2022/09/22 07:13:45;;;;;;;;;;;;;;;14.32;70.04;101249.16;1705263;84;25763;-61
2022/09/22 07:16:15;;;;;;;;;;;;;;;14.32;68.88;101245.09;1706131;82;25696;-61
2022/09/22 07:18:46;;;;;;;;;;;;;;;14.51;69.29;101240.59;1706551;84;25845;-62
2022/09/22 07:21:16;;;;;;;;;;;;;;;14.60;69.41;101242.41;1706949;84;25806;-62
2022/09/22 07:23:43;;;;;;;;;;;;;;;14.61;67.91;101241.41;1706925;84;27642;-62
2022/09/22 07:26:13;;;;;;;;;;;;;;;14.58;67.86;101244.91;1705590;82;25848;-60
2022/09/22 07:28:40;;;;;;;;;;;;;;;14.62;68.60;101239.05;1706227;84;25669;-60
2022/09/22 07:31:10;;;;;;;;;;;;;;;14.61;68.04;101245.46;1719463;82;25990;-62
2022/09/22 07:33:39;;;;;;;;;;;;;;;14.50;67.46;101242.95;1706962;84;25775;-62
2022/09/22 07:36:21;;;;;;;;;;;;;;;14.46;67.53;101244.27;1708453;83;28214;-61
2022/09/22 07:38:50;;;;;;;;;;;;;;;14.47;67.83;101240.56;1713030;82;26225;-61
2022/09/22 07:41:22;;;;;;;;;;;;;;;14.53;67.37;101246.20;1718624;83;25870;-60
2022/09/22 07:43:51;;;;;;;;;;;;;;;14.59;67.68;101240.69;1706520;84;25865;-60
2022/09/22 07:46:18;;;;;;;;;;;;;;;14.81;67.88;101239.97;1707268;84;25791;-61
2022/09/22 07:48:46;;;;;;;;;;;;;;;15.06;66.41;101241.05;1706948;84;27502;-60
2022/09/22 07:51:21;;;;;;;;;;;;;;;14.93;64.41;101231.11;1707192;84;25763;-60
2022/09/22 07:53:50;;;;;;;;;;;;;;;14.83;64.50;101242.86;1706390;84;25751;-60
2022/09/22 07:56:20;;;;;;;;;;;;;;;14.66;64.45;101239.11;1705483;84;25708;-60
2022/09/22 07:58:52;;;;;;;;;;;;;;;14.71;65.61;101247.64;1705783;84;25781;-61
2022/09/22 08:01:20;;;;;;;;;;;;;;;14.89;66.04;101239.18;1705661;84;27510;-61
2022/09/22 08:03:46;;;;;;;;;;;;;;;15.13;65.89;101238.09;1705785;82;25709;-60
2022/09/22 08:06:15;;;;;;;;;;;;;;;15.37;64.44;101239.83;1706135;84;25778;-61
2022/09/22 08:08:44;;;;;;;;;;;;;;;15.50;63.66;101237.55;1706132;84;25795;-62
2022/09/22 08:11:14;;;;;;;;;;;;;;;15.56;63.11;101238.27;1705849;84;25762;-60
2022/09/22 08:13:43;;;;;;;;;;;;;;;15.72;62.91;101239.42;1705470;84;27488;-61
2022/09/22 08:16:10;;;;;;;;;;;;;;;15.85;61.78;101240.39;1706193;84;25928;-60
2022/09/22 08:18:38;;;;;;;;;;;;;;;15.89;60.21;101241.75;1706122;84;25824;-60
2022/09/22 08:21:07;;;;;;;;;;;;;;;15.87;60.67;101233.78;1705907;84;26883;-60
2022/09/22 08:23:33;;;;;;;;;;;;;;;16.05;61.04;101228.80;1706696;84;25850;-60
2022/09/22 08:26:07;;;;;;;;;;;;;;;16.14;60.76;101234.62;1710343;82;27487;-60
2022/09/22 08:28:34;;;;;;;;;;;;;;;16.02;60.15;101239.48;1707164;83;26713;-61
2022/09/22 08:31:02;;;;;;;;;;;;;;;15.85;60.80;101226.83;1708537;82;25747;-61
2022/09/22 08:33:30;;;;;;;;;;;;;;;15.83;61.63;101226.09;1701035;83;25763;-61
2022/09/22 08:36:02;;;;;;;;;;;;;;;15.87;62.26;101224.81;1706150;84;26659;-60
2022/09/22 08:38:27;;;;;;;;;;;;;;;15.76;60.41;101233.52;1715051;82;27592;-61
2022/09/22 08:41:18;;;;;;;;;;;;;;;15.73;61.51;101233.83;1740317;82;27209;-61
2022/09/22 08:43:48;;;;;;;;;;;;;;;15.77;60.90;101231.64;1740539;82;26590;-59
2022/09/22 08:46:15;;;;;;;;;;;;;;;15.75;59.58;101237.73;1707641;82;25838;-61
2022/09/22 08:51:54;;;;;;;;;;;;;;;15.73;59.05;101222.98;1707138;83;27542;-60
2022/09/22 08:54:30;;;;;;;;;;;;;;;15.91;59.34;101222.11;1706445;84;25865;-61
2022/09/22 08:57:12;;;;;;;;;;;;;;;15.93;59.06;101213.30;1707058;83;25804;-59
2022/09/22 08:59:43;;;;;;;;;;;;;;;16.19;58.41;101220.05;1709364;83;26121;-61
2022/09/22 09:02:19;;;;;;;;;;;;;;;16.43;57.58;101226.09;1721745;82;25463;-61
2022/09/22 09:05:04;;;;;;;;;;;;;;;16.63;55.54;101215.48;1729863;83;27476;-61
2022/09/22 09:07:34;;;;;;;;;;;;;;;16.79;55.61;101207.86;1725839;82;25838;-61
2022/09/22 09:10:04;;;;;;;;;;;;;;;16.93;56.30;101207.26;1729915;83;25811;-61
2022/09/22 09:12:35;;;;;;;;;;;;;;;17.41;53.28;101203.37;1729320;83;25848;-60
2022/09/22 09:15:07;;;;;;;;;;;;;;;17.74;52.81;101202.48;1729753;83;25843;-61
2022/09/22 09:17:37;;;;;;;;;;;;;;;17.77;52.84;101200.75;1729606;83;28387;-59
2022/09/22 09:20:34;;;;;;;;;;;;;;;17.79;52.97;101202.31;1729765;83;25706;-60
2022/09/22 09:23:02;;;;;;;;;;;;;;;17.81;53.26;101201.59;1729928;83;25747;-59
2022/09/22 09:25:38;;;;;;;;;;;;;;;17.59;53.71;101202.33;1728116;82;25809;-61
2022/09/22 09:28:15;;;;;;;;;;;;;;;17.36;53.70;101206.60;1725062;83;25763;-60
2022/09/22 09:30:50;;;;;;;;;;;;;;;17.03;54.48;101209.28;1726526;82;27410;-60
2022/09/22 09:33:27;;;;;;;;;;;;;;;16.66;56.05;101217.36;1728409;82;25753;-60
2022/09/22 09:35:54;;;;;;;;;;;;;;;16.37;58.09;101221.33;1695515;84;25724;-61
2022/09/22 09:38:27;;;;;;;;;;;;;;;16.10;60.11;101213.73;1702356;83;25786;-61
2022/09/22 09:41:00;;;;;;;;;;;;;;;15.81;60.88;101214.05;1724398;83;25629;-62
2022/09/22 09:43:28;;;;;;;;;;;;;;;15.73;61.70;101220.79;1708958;83;27676;-61
2022/09/22 09:46:07;;;;;;;;;;;;;;;15.62;62.40;101217.81;1724824;83;25663;-60
2022/09/22 09:48:57;;;;;;;;;;;;;;;15.58;62.68;101213.20;1724930;83;25763;-60
2022/09/22 09:51:24;;;;;;;;;;;;;;;15.58;62.89;101217.28;1724458;83;25844;-60
2022/09/22 09:53:53;;;;;;;;;;;;;;;15.71;63.26;101205.17;1724887;83;25814;-60
2022/09/22 09:56:25;;;;;;;;;;;;;;;15.92;62.99;101208.89;1724657;83;27580;-60
2022/09/22 10:01:53;;;;;;;;;;;;;;;17.26;58.57;101206.44;1709689;84;25791;-61
2022/09/22 10:04:32;;;;;;;;;;;;;;;18.89;57.70;101202.51;1710162;84;25799;-61
2022/09/22 10:07:17;;;;;;;;;;;;;;;20.29;53.98;101190.81;1709774;84;25905;-60
2022/09/22 10:09:44;;;;;;;;;;;;;;;21.58;49.62;101192.81;1710091;84;28103;-61
2022/09/22 10:12:31;;;;;;;;;;;;;;;22.33;48.07;101203.70;1709676;84;25755;-60
2022/09/22 10:15:00;;;;;;;;;;;;;;;22.12;43.50;101200.55;1710075;84;25827;-60
2022/09/22 10:17:29;;;;;;;;;;;;;;;20.82;46.26;101201.58;1710053;84;25784;-60
2022/09/22 10:20:15;;;;;;;;;;;;;;;19.87;47.48;101215.03;1708494;84;25707;-61
2022/09/22 10:22:42;;;;;;;;;;;;;;;19.11;48.73;101217.73;1710069;84;27661;-61
2022/09/22 10:25:24;;;;;;;;;;;;;;;18.28;50.47;101219.03;1708614;84;25465;-61
2022/09/22 10:28:03;;;;;;;;;;;;;;;17.71;52.13;101222.70;1708441;84;25771;-61
2022/09/22 10:30:36;;;;;;;;;;;;;;;17.27;53.37;101218.49;1709322;83;25812;-61
2022/09/22 10:33:16;;;;;;;;;;;;;;;16.92;54.63;101216.88;1709338;84;27349;-61
2022/09/22 10:35:55;;;;;;;;;;;;;;;16.57;56.30;101221.06;1709627;84;27471;-61
2022/09/22 10:38:25;;;;;;;;;;;;;;;16.28;57.15;101223.66;1713750;83;25738;-60
2022/09/22 10:41:13;;;;;;;;;;;;;;;16.15;57.58;101222.75;1730118;83;25853;-61
2022/09/22 10:44:00;;;;;;;;;;;;;;;16.03;58.60;101226.75;1709962;84;25954;-59
2022/09/22 10:46:33;;;;;;;;;;;;;;;15.95;59.71;101216.20;1709785;84;25722;-60
2022/09/22 10:49:21;;;;;;;;;;;;;;;15.96;59.95;101221.97;1681332;85;27546;-60
2022/09/22 10:51:55;;;;;;;;;;;;;;;15.96;60.87;101222.46;1686764;84;25778;-60
2022/09/22 10:54:25;;;;;;;;;;;;;;;16.02;60.99;101215.55;1710011;84;25722;-60
2022/09/22 10:56:58;;;;;;;;;;;;;;;16.15;61.30;101209.18;1708271;84;25933;-60
2022/09/22 10:59:47;;;;;;;;;;;;;;;16.34;61.68;101208.06;1709163;84;26023;-60
2022/09/22 11:02:20;;;;;;;;;;;;;;;16.51;60.87;101199.97;1709056;84;27635;-60
2022/09/22 11:04:51;;;;;;;;;;;;;;;16.42;59.50;101201.83;1713437;83;25992;-59
2022/09/22 11:13:34;;;;;;;;;;;;;;;16.93;60.60;101186.88;1681613;84;25729;-60
2022/09/22 11:16:19;;;;;;;;;;;;;;;17.18;59.48;101180.92;1698429;83;27665;-60
2022/09/22 11:18:51;;;;;;;;;;;;;;;17.51;59.69;101182.28;1683860;83;25800;-60
2022/09/22 11:21:30;;;;;;;;;;;;;;;17.99;59.30;101178.30;1680327;84;26415;-60
2022/09/22 11:24:07;;;;;;;;;;;;;;;18.20;59.31;101180.91;1681166;85;25984;-60
2022/09/22 11:26:51;;;;;;;;;;;;;;;18.20;59.35;101185.52;1720674;80;26061;-60
2022/09/22 11:29:21;;;;;;;;;;;;;;;18.04;59.62;101185.06;1732084;81;27475;-60
2022/09/22 11:32:17;;;;;;;;;;;;;;;17.72;59.34;101179.50;1691977;83;26959;-60
2022/09/22 11:35:04;;;;;;;;;;;;;;;17.33;58.54;101176.19;1702432;83;25755;-60
2022/09/22 11:38:01;;;;;;;;;;;;;;;16.90;59.33;101174.94;1707148;84;25894;-60
2022/09/22 11:40:38;;;;;;;;;;;;;;;16.51;60.45;101183.67;1707393;84;25448;-60
2022/09/22 11:43:23;;;;;;;;;;;;;;;16.12;60.93;101186.42;1686024;84;27694;-60
2022/09/22 11:46:02;;;;;;;;;;;;;;;15.90;61.91;101181.06;1706706;83;25777;-61
2022/09/22 11:48:57;;;;;;;;;;;;;;;15.75;62.28;101172.63;1706283;83;25720;-62
2022/09/22 11:51:33;;;;;;;;;;;;;;;15.70;64.03;101185.31;1678817;85;25812;-61
2022/09/22 11:54:17;;;;;;;;;;;;;;;15.66;64.45;101174.45;1679177;85;25796;-61
2022/09/22 11:56:46;;;;;;;;;;;;;;;15.62;64.47;101171.22;1678319;85;27436;-60
2022/09/22 11:59:36;;;;;;;;;;;;;;;15.55;64.65;101175.58;1686616;83;26369;-60
2022/09/22 12:02:14;;;;;;;;;;;;;;;15.41;64.33;101179.72;1706164;84;25760;-60
2022/09/22 12:04:43;;;;;;;;;;;;;;;15.33;64.78;101183.70;1705346;84;25953;-61
2022/09/22 12:07:22;;;;;;;;;;;;;;;15.23;64.56;101189.22;1705342;83;25720;-61
2022/09/22 12:09:52;;;;;;;;;;;;;;;15.07;63.83;101179.60;1705499;84;27419;-60
2022/09/22 12:12:21;;;;;;;;;;;;;;;14.96;64.35;101191.53;1705693;82;25770;-61
2022/09/22 12:15:06;;;;;;;;;;;;;;;14.85;64.34;101199.36;1705746;84;25757;-61
2022/09/22 12:17:36;;;;;;;;;;;;;;;14.77;64.58;101193.87;1706702;84;26565;-59
2022/09/22 12:20:24;;;;;;;;;;;;;;;14.67;65.25;101187.17;1707082;84;25691;-59
2022/09/22 12:23:20;;;;;;;;;;;;;;;14.66;65.21;101186.79;1669464;85;28330;-60
2022/09/22 12:25:55;;;;;;;;;;;;;;;14.64;65.20;101184.73;1703597;84;25810;-60
2022/09/22 12:28:25;;;;;;;;;;;;;;;14.67;65.63;101177.70;1678809;85;26434;-60
2022/09/22 12:30:58;;;;;;;;;;;;;;;14.70;66.29;101170.12;1728851;82;25812;-61
2022/09/22 12:33:26;;;;;;;;;;;;;;;14.75;66.11;101171.53;1740612;82;25721;-60
2022/09/22 12:35:55;;;;;;;;;;;;;;;14.71;65.74;101175.89;1740112;82;27475;-61
2022/09/22 12:38:22;;;;;;;;;;;;;;;14.68;65.47;101184.30;1684900;82;25733;-59
2022/09/22 12:40:50;;;;;;;;;;;;;;;14.64;65.54;101184.73;1709702;83;25688;-61
2022/09/22 12:43:22;;;;;;;;;;;;;;;14.63;65.12;101185.73;1713161;83;26489;-60
2022/09/22 12:45:49;;;;;;;;;;;;;;;14.60;65.15;101177.94;1712763;83;25783;-60
2022/09/22 12:48:25;;;;;;;;;;;;;;;14.55;65.29;101168.92;1706594;83;27571;-60
2022/09/22 12:50:52;;;;;;;;;;;;;;;14.59;66.26;101166.75;1705953;84;25791;-59
2022/09/22 12:53:25;;;;;;;;;;;;;;;14.60;65.91;101163.05;1705557;84;25699;-61
2022/09/22 12:55:53;;;;;;;;;;;;;;;14.62;66.08;101157.82;1705899;83;26011;-60
2022/09/22 12:58:29;;;;;;;;;;;;;;;14.69;66.00;101161.64;1705754;83;25975;-60
2022/09/22 13:01:15;;;;;;;;;;;;;;;14.79;66.51;101161.55;1678651;83;28227;-60
2022/09/22 13:03:49;;;;;;;;;;;;;;;14.83;65.68;101166.19;1678018;85;25748;-61
2022/09/22 13:06:26;;;;;;;;;;;;;;;14.98;65.71;101167.34;1696508;84;25753;-60
2022/09/22 13:08:55;;;;;;;;;;;;;;;15.61;65.69;101166.80;1706891;83;25983;-59
2022/09/22 13:11:59;;;;;;;;;;;;;;;17.38;64.25;101164.80;1706766;84;25760;-59